createdAt,value
2017-09-04T00:00:00.330Z,82.68
2017-09-04T00:01:00.319Z,81.92
2017-09-04T00:02:00.312Z,82.59
2017-09-04T00:03:00.305Z,83.03
2017-09-04T00:04:00.297Z,82.49
2017-09-04T00:05:00.294Z,82.87
2017-09-04T00:06:00.287Z,83.60
2017-09-04T00:07:00.279Z,83.89
2017-09-04T00:08:00.271Z,84.27
2017-09-04T00:09:00.263Z,83.89
2017-09-04T00:10:00.255Z,84.08
2017-09-04T00:11:00.249Z,84.46
2017-09-04T00:12:00.240Z,84.94
2017-09-04T00:13:00.228Z,85.32
2017-09-04T00:14:00.222Z,85.41
2017-09-04T00:15:00.215Z,85.61
2017-09-04T00:16:00.206Z,85.57
2017-09-04T00:17:00.199Z,85.38
2017-09-04T00:18:00.192Z,85.51
2017-09-04T00:19:00.184Z,85.75
2017-09-04T00:20:00.175Z,86.23
2017-09-04T00:21:00.173Z,86.23
2017-09-04T00:22:00.166Z,86.14
2017-09-04T00:23:00.159Z,86.33
2017-09-04T00:24:00.149Z,85.85
2017-09-04T00:25:00.142Z,86.14
2017-09-04T00:26:00.136Z,86.04
2017-09-04T00:27:00.128Z,85.94
2017-09-04T00:28:00.120Z,85.75
2017-09-04T00:29:00.109Z,86.33
2017-09-04T00:30:00.100Z,86.52
2017-09-04T00:31:00.094Z,85.66
2017-09-04T00:32:00.087Z,85.66
2017-09-04T00:33:00.079Z,85.57
2017-09-04T00:34:00.072Z,85.03
2017-09-04T00:35:00.064Z,84.52
2017-09-04T00:36:00.057Z,85.03
2017-09-04T00:37:00.054Z,85.32
2017-09-04T00:38:00.047Z,84.27
2017-09-04T00:39:00.042Z,83.89
2017-09-04T00:40:00.038Z,84.08
2017-09-04T00:41:00.024Z,84.36
2017-09-04T00:42:00.018Z,84.55
2017-09-04T00:43:00.009Z,83.31
2017-09-04T00:44:00.003Z,83.79
2017-09-04T00:44:59.991Z,83.50
2017-09-04T00:45:59.983Z,83.12
2017-09-04T00:46:59.977Z,82.74
2017-09-04T00:47:59.968Z,82.59
2017-09-04T00:48:59.961Z,82.68
2017-09-04T00:49:59.952Z,82.78
2017-09-04T00:50:59.947Z,82.20
2017-09-04T00:51:59.938Z,82.30
2017-09-04T00:52:59.936Z,82.59
2017-09-04T00:53:59.929Z,82.40
2017-09-04T00:54:59.922Z,82.49
2017-09-04T00:55:59.914Z,82.78
2017-09-04T00:56:59.907Z,82.01
2017-09-04T00:57:59.899Z,82.40
2017-09-04T00:58:59.893Z,81.73
2017-09-04T00:59:59.884Z,82.20
2017-09-04T01:00:59.873Z,81.92
2017-09-04T01:01:59.866Z,81.82
2017-09-04T01:02:59.860Z,81.73
2017-09-04T01:03:59.852Z,82.11
2017-09-04T01:04:59.848Z,81.73
2017-09-04T01:05:59.841Z,81.92
2017-09-04T01:06:59.834Z,82.40
2017-09-04T01:07:59.826Z,82.49
2017-09-04T01:08:59.815Z,81.73
2017-09-04T01:09:59.808Z,81.82
2017-09-04T01:10:59.801Z,81.82
2017-09-04T01:11:59.792Z,81.82
2017-09-04T01:12:59.785Z,81.92
2017-09-04T01:13:59.779Z,81.73
2017-09-04T01:14:59.771Z,82.11
2017-09-04T01:15:59.764Z,82.20
2017-09-04T01:16:59.759Z,81.92
2017-09-04T01:17:59.757Z,82.20
2017-09-04T01:18:59.747Z,82.20
2017-09-04T01:19:59.738Z,82.40
2017-09-04T01:20:59.731Z,81.82
2017-09-04T01:21:59.723Z,82.20
2017-09-04T01:22:59.716Z,82.40
2017-09-04T01:23:59.708Z,82.01
2017-09-04T01:24:59.698Z,82.49
2017-09-04T01:25:59.691Z,81.92
2017-09-04T01:26:59.682Z,82.59
2017-09-04T01:27:59.674Z,82.68
2017-09-04T01:28:59.669Z,82.40
2017-09-04T01:29:59.660Z,82.40
2017-09-04T01:30:59.655Z,82.30
2017-09-04T01:31:59.647Z,82.68
2017-09-04T01:32:59.643Z,82.59
2017-09-04T01:33:59.637Z,82.54
2017-09-04T01:34:59.630Z,82.54
2017-09-04T01:35:59.622Z,82.54
2017-09-04T01:36:59.614Z,82.64
2017-09-04T01:37:59.607Z,83.03
2017-09-04T01:38:59.600Z,82.93
2017-09-04T01:39:59.590Z,83.31
2017-09-04T01:40:59.580Z,82.83
2017-09-04T01:41:59.574Z,82.83
2017-09-04T01:42:59.565Z,82.54
2017-09-04T01:43:59.558Z,82.74
2017-09-04T01:44:59.551Z,82.93
2017-09-04T01:45:59.548Z,82.93
2017-09-04T01:46:59.536Z,82.83
2017-09-04T01:47:59.528Z,82.74
2017-09-04T01:48:59.526Z,82.83
2017-09-04T01:49:59.520Z,82.83
2017-09-04T01:50:59.511Z,82.64
2017-09-04T01:51:59.502Z,83.03
2017-09-04T01:52:59.495Z,82.93
2017-09-04T01:53:59.488Z,82.83
2017-09-04T01:54:59.481Z,82.93
2017-09-04T01:55:59.473Z,82.83
2017-09-04T01:56:59.461Z,83.69
2017-09-04T01:57:59.455Z,83.12
2017-09-04T01:58:59.447Z,83.31
2017-09-04T01:59:59.439Z,83.12
2017-09-04T02:00:59.431Z,83.03
2017-09-04T02:01:59.424Z,83.89
2017-09-04T02:02:59.417Z,83.12
2017-09-04T02:03:59.409Z,83.31
2017-09-04T02:04:59.406Z,83.12
2017-09-04T02:05:59.398Z,82.93
2017-09-04T02:06:59.391Z,83.79
2017-09-04T02:07:59.383Z,83.12
2017-09-04T02:08:59.372Z,83.89
2017-09-04T02:09:59.365Z,83.03
2017-09-04T02:10:59.356Z,83.40
2017-09-04T02:11:59.348Z,83.40
2017-09-04T02:12:59.345Z,83.22
2017-09-04T02:13:59.338Z,83.89
2017-09-04T02:14:59.330Z,83.40
2017-09-04T02:15:59.321Z,83.40
2017-09-04T02:16:59.320Z,83.22
2017-09-04T02:17:59.308Z,83.22
2017-09-04T02:18:59.303Z,83.12
2017-09-04T02:19:59.292Z,83.89
2017-09-04T02:20:59.281Z,83.03
2017-09-04T02:21:59.272Z,83.12
2017-09-04T02:22:59.266Z,82.93
2017-09-04T02:23:59.257Z,83.03
2017-09-04T02:24:59.250Z,83.03
2017-09-04T02:25:59.246Z,83.03
2017-09-04T02:26:59.236Z,83.12
2017-09-04T02:27:59.227Z,83.31
2017-09-04T02:28:59.223Z,83.40
2017-09-04T02:29:59.217Z,83.60
2017-09-04T02:30:59.209Z,83.89
2017-09-04T02:31:59.200Z,83.79
2017-09-04T02:32:59.194Z,83.79
2017-09-04T02:33:59.190Z,83.40
2017-09-04T02:34:59.179Z,83.12
2017-09-04T02:35:59.170Z,83.69
2017-09-04T02:36:59.159Z,83.60
2017-09-04T02:37:59.151Z,83.31
2017-09-04T02:38:59.143Z,83.12
2017-09-04T02:39:59.135Z,82.93
2017-09-04T02:40:59.128Z,83.03
2017-09-04T02:41:59.120Z,83.08
2017-09-04T02:42:59.113Z,83.65
2017-09-04T02:43:59.105Z,83.46
2017-09-04T02:44:59.101Z,83.27
2017-09-04T02:45:59.098Z,83.60
2017-09-04T02:46:59.087Z,83.40
2017-09-04T02:47:59.078Z,84.17
2017-09-04T02:48:59.070Z,83.46
2017-09-04T02:49:59.062Z,83.22
2017-09-04T02:50:59.056Z,83.17
2017-09-04T02:51:59.047Z,83.65
2017-09-04T02:52:59.036Z,83.46
2017-09-04T02:53:59.028Z,83.65
2017-09-04T02:54:59.021Z,84.13
2017-09-04T02:55:59.012Z,84.03
2017-09-04T02:56:59.005Z,83.69
2017-09-04T02:57:58.997Z,83.60
2017-09-04T02:58:58.991Z,84.03
2017-09-04T02:59:58.981Z,83.69
2017-09-04T03:00:58.979Z,83.46
2017-09-04T03:01:58.970Z,83.65
2017-09-04T03:02:58.965Z,83.37
2017-09-04T03:03:58.955Z,83.50
2017-09-04T03:04:58.947Z,83.94
2017-09-04T03:05:58.940Z,83.65
2017-09-04T03:06:58.934Z,83.84
2017-09-04T03:07:58.949Z,83.65
2017-09-04T03:08:58.911Z,83.08
2017-09-04T03:09:58.903Z,83.50
2017-09-04T03:10:58.896Z,83.46
2017-09-04T03:11:58.888Z,83.94
2017-09-04T03:12:58.884Z,84.08
2017-09-04T03:13:58.878Z,83.84
2017-09-04T03:14:58.868Z,83.84
2017-09-04T03:15:58.861Z,83.08
2017-09-04T03:16:58.850Z,83.89
2017-09-04T03:17:58.841Z,83.79
2017-09-04T03:18:58.834Z,83.84
2017-09-04T03:19:58.825Z,83.65
2017-09-04T03:20:58.818Z,83.89
2017-09-04T03:21:58.811Z,83.75
2017-09-04T03:22:58.802Z,83.56
2017-09-04T03:23:58.794Z,83.46
2017-09-04T03:24:58.791Z,83.56
2017-09-04T03:25:58.783Z,84.13
2017-09-04T03:26:58.781Z,84.03
2017-09-04T03:27:58.766Z,83.84
2017-09-04T03:28:58.760Z,83.65
2017-09-04T03:29:58.751Z,84.61
2017-09-04T03:30:58.746Z,84.23
2017-09-04T03:31:58.735Z,84.32
2017-09-04T03:32:58.723Z,84.42
2017-09-04T03:33:58.716Z,84.52
2017-09-04T03:34:58.708Z,84.89
2017-09-04T03:35:58.700Z,84.89
2017-09-04T03:36:58.696Z,85.57
2017-09-04T03:37:58.685Z,85.47
2017-09-04T03:38:58.677Z,85.75
2017-09-04T03:39:58.668Z,85.09
2017-09-04T03:40:58.665Z,84.99
2017-09-04T03:41:58.658Z,85.28
2017-09-04T03:42:58.650Z,85.38
2017-09-04T03:43:58.641Z,85.57
2017-09-04T03:44:58.635Z,84.99
2017-09-04T03:45:58.625Z,84.80
2017-09-04T03:46:58.619Z,85.09
2017-09-04T03:47:58.609Z,85.28
2017-09-04T03:48:58.597Z,84.99
2017-09-04T03:49:58.591Z,85.28
2017-09-04T03:50:58.581Z,84.23
2017-09-04T03:51:58.575Z,84.32
2017-09-04T03:52:58.571Z,84.23
2017-09-04T03:53:58.560Z,84.13
2017-09-04T03:54:58.553Z,84.13
2017-09-04T03:55:58.544Z,84.52
2017-09-04T03:56:58.539Z,84.80
2017-09-04T03:57:58.538Z,84.70
2017-09-04T03:58:58.526Z,85.47
2017-09-04T03:59:58.516Z,85.85
2017-09-04T04:00:58.509Z,85.94
2017-09-04T04:01:58.500Z,86.23
2017-09-04T04:02:58.492Z,86.23
2017-09-04T04:03:58.486Z,85.85
2017-09-04T04:04:58.473Z,86.23
2017-09-04T04:05:58.467Z,86.04
2017-09-04T04:06:58.457Z,85.94
2017-09-04T04:07:58.448Z,85.94
2017-09-04T04:08:58.442Z,86.23
2017-09-04T04:09:58.436Z,86.23
2017-09-04T04:10:58.426Z,86.23
2017-09-04T04:11:58.417Z,85.75
2017-09-04T04:12:58.415Z,85.57
2017-09-04T04:13:58.408Z,85.57
2017-09-04T04:14:58.400Z,85.47
2017-09-04T04:15:58.390Z,84.99
2017-09-04T04:16:58.378Z,85.18
2017-09-04T04:17:58.372Z,84.89
2017-09-04T04:18:58.363Z,85.57
2017-09-04T04:19:58.355Z,85.28
2017-09-04T04:20:58.353Z,85.38
2017-09-04T04:21:58.344Z,84.89
2017-09-04T04:22:58.338Z,84.61
2017-09-04T04:23:58.328Z,84.13
2017-09-04T04:24:58.320Z,84.32
2017-09-04T04:25:58.313Z,84.61
2017-09-04T04:26:58.306Z,84.61
2017-09-04T04:27:58.297Z,84.13
2017-09-04T04:28:58.285Z,84.27
2017-09-04T04:29:58.277Z,84.03
2017-09-04T04:30:58.271Z,83.89
2017-09-04T04:31:58.262Z,84.13
2017-09-04T04:32:58.255Z,84.32
2017-09-04T04:33:58.246Z,83.27
2017-09-04T04:34:58.237Z,83.84
2017-09-04T04:35:58.231Z,83.27
2017-09-04T04:36:58.227Z,83.56
2017-09-04T04:37:58.220Z,82.98
2017-09-04T04:38:58.211Z,82.83
2017-09-04T04:39:58.204Z,82.89
2017-09-04T04:40:58.201Z,83.17
2017-09-04T04:41:58.187Z,83.98
2017-09-04T04:42:58.181Z,83.17
2017-09-04T04:43:58.171Z,83.84
2017-09-04T04:44:58.159Z,82.79
2017-09-04T04:45:58.153Z,82.93
2017-09-04T04:46:58.146Z,83.37
2017-09-04T04:47:58.137Z,83.94
2017-09-04T04:48:58.133Z,83.75
2017-09-04T04:49:58.120Z,83.65
2017-09-04T04:50:58.114Z,83.60
2017-09-04T04:51:58.104Z,83.27
2017-09-04T04:52:58.100Z,83.65
2017-09-04T04:53:58.094Z,84.23
2017-09-04T04:54:58.086Z,84.42
2017-09-04T04:55:58.077Z,84.23
2017-09-04T04:56:58.070Z,83.89
2017-09-04T04:57:58.062Z,83.69
2017-09-04T04:58:58.054Z,83.75
2017-09-04T04:59:58.047Z,83.60
2017-09-04T05:00:58.034Z,83.50
2017-09-04T05:01:58.027Z,83.89
2017-09-04T05:02:58.019Z,83.31
2017-09-04T05:03:58.012Z,83.75
2017-09-04T05:04:58.003Z,83.40
2017-09-04T05:05:57.997Z,83.40
2017-09-04T05:06:57.991Z,83.50
2017-09-04T05:07:57.980Z,83.12
2017-09-04T05:08:57.977Z,82.83
2017-09-04T05:09:57.969Z,83.22
2017-09-04T05:10:57.963Z,82.93
2017-09-04T05:11:57.953Z,83.12
2017-09-04T05:12:57.945Z,83.03
2017-09-04T05:13:57.939Z,82.26
2017-09-04T05:14:57.931Z,82.54
2017-09-04T05:15:57.923Z,82.17
2017-09-04T05:16:57.911Z,82.35
2017-09-04T05:17:57.903Z,82.45
2017-09-04T05:18:57.896Z,82.59
2017-09-04T05:19:57.889Z,82.17
2017-09-04T05:20:57.886Z,81.82
2017-09-04T05:21:57.877Z,82.40
2017-09-04T05:22:57.871Z,82.01
2017-09-04T05:23:57.863Z,81.92
2017-09-04T05:24:57.851Z,81.73
2017-09-04T05:25:57.845Z,81.82
2017-09-04T05:26:57.842Z,81.25
2017-09-04T05:27:57.830Z,80.62
2017-09-04T05:28:57.822Z,79.95
2017-09-04T05:29:57.814Z,80.04
2017-09-04T05:30:57.808Z,78.99
2017-09-04T05:31:57.800Z,78.80
2017-09-04T05:32:57.797Z,79.22
2017-09-04T05:33:57.791Z,78.93
2017-09-04T05:34:57.784Z,77.53
2017-09-04T05:35:57.776Z,77.34
2017-09-04T05:36:57.770Z,76.71
2017-09-04T05:37:57.763Z,75.40
2017-09-04T05:38:57.756Z,74.19
2017-09-04T05:39:57.749Z,72.02
2017-09-04T05:40:57.739Z,70.39
2017-09-04T05:41:57.731Z,70.07
2017-09-04T05:42:57.725Z,69.87
2017-09-04T05:43:57.719Z,70.07
2017-09-04T05:44:57.713Z,70.42
2017-09-04T05:45:57.706Z,71.19
2017-09-04T05:46:57.701Z,71.09
2017-09-04T05:47:57.695Z,71.66
2017-09-04T05:48:57.694Z,71.53
2017-09-04T05:49:57.688Z,71.76
2017-09-04T05:50:57.682Z,72.05
2017-09-04T05:51:57.677Z,72.63
2017-09-04T05:52:57.671Z,71.86
2017-09-04T05:53:57.666Z,71.76
2017-09-04T05:54:57.660Z,70.90
2017-09-04T05:55:57.655Z,70.93
2017-09-04T05:56:57.645Z,70.55
2017-09-04T05:57:57.642Z,69.59
2017-09-04T05:58:57.636Z,69.97
2017-09-04T05:59:57.629Z,69.97
2017-09-04T06:00:57.623Z,69.87
2017-09-04T06:01:57.619Z,70.01
2017-09-04T06:02:57.613Z,69.27
2017-09-04T06:03:57.607Z,68.63
2017-09-04T06:04:57.607Z,67.61
2017-09-04T06:05:57.603Z,65.91
2017-09-04T06:06:57.597Z,64.37
2017-09-04T06:07:57.593Z,64.05
2017-09-04T06:08:57.589Z,63.60
2017-09-04T06:09:57.586Z,63.89
2017-09-04T06:10:57.582Z,63.45
2017-09-04T06:11:57.576Z,63.99
2017-09-04T06:12:57.569Z,65.49
2017-09-04T06:13:57.564Z,66.61
2017-09-04T06:14:57.561Z,67.57
2017-09-04T06:15:57.556Z,67.92
2017-09-04T06:16:57.553Z,69.26
2017-09-04T06:17:57.549Z,69.65
2017-09-04T06:18:57.546Z,70.03
2017-09-04T06:19:57.541Z,70.70
2017-09-04T06:20:57.540Z,70.51
2017-09-04T06:21:57.542Z,70.07
2017-09-04T06:22:57.533Z,69.53
2017-09-04T06:23:57.529Z,68.21
2017-09-04T06:24:57.522Z,66.97
2017-09-04T06:25:57.518Z,66.33
2017-09-04T06:26:57.514Z,65.20
2017-09-04T06:27:57.510Z,64.34
2017-09-04T06:28:57.512Z,63.60
2017-09-04T06:29:57.508Z,62.90
2017-09-04T06:30:57.504Z,63.86
2017-09-04T06:31:57.502Z,63.83
2017-09-04T06:32:57.498Z,63.92
2017-09-04T06:33:57.495Z,64.02
2017-09-04T06:34:57.495Z,64.18
2017-09-04T06:35:57.490Z,62.12
2017-09-04T06:36:57.484Z,60.23
2017-09-04T06:37:57.482Z,59.49
2017-09-04T06:38:57.481Z,60.14
2017-09-04T06:39:57.478Z,60.59
2017-09-04T06:40:57.476Z,61.58
2017-09-04T06:41:57.475Z,62.68
2017-09-04T06:42:57.472Z,63.18
2017-09-04T06:43:57.471Z,62.48
2017-09-04T06:44:57.474Z,61.07
2017-09-04T06:45:57.472Z,59.91
2017-09-04T06:46:57.471Z,59.58
2017-09-04T06:47:57.470Z,58.04
2017-09-04T06:48:57.469Z,57.68
2017-09-04T06:49:57.469Z,56.81
2017-09-04T06:50:57.468Z,56.00
2017-09-04T06:51:57.468Z,55.23
2017-09-04T06:52:57.503Z,54.72
2017-09-04T06:53:57.464Z,54.72
2017-09-04T06:54:57.466Z,54.27
2017-09-04T06:55:57.464Z,53.06
2017-09-04T06:56:57.465Z,51.66
2017-09-04T06:57:57.467Z,51.06
2017-09-04T06:58:57.470Z,50.91
2017-09-04T06:59:57.469Z,51.20
2017-09-04T07:00:57.475Z,51.39
2017-09-04T07:01:57.476Z,51.44
2017-09-04T07:02:57.479Z,52.19
2017-09-04T07:03:57.480Z,53.63
2017-09-04T07:04:57.481Z,53.92
2017-09-04T07:05:57.484Z,54.44
2017-09-04T07:06:57.488Z,55.99
2017-09-04T07:07:57.487Z,56.18
2017-09-04T07:08:57.486Z,56.49
2017-09-04T07:09:57.488Z,55.34
2017-09-04T07:10:57.489Z,55.54
2017-09-04T07:11:57.491Z,55.56
2017-09-04T07:12:57.493Z,55.34
2017-09-04T07:13:57.496Z,55.34
2017-09-04T07:14:57.498Z,55.34
2017-09-04T07:15:57.499Z,55.41
2017-09-04T07:16:57.505Z,56.18
2017-09-04T07:17:57.507Z,55.46
2017-09-04T07:18:57.510Z,54.82
2017-09-04T07:19:57.511Z,54.27
2017-09-04T07:20:57.514Z,53.95
2017-09-04T07:21:57.513Z,54.79
2017-09-04T07:22:57.516Z,55.15
2017-09-04T07:23:57.552Z,55.44
2017-09-04T07:24:57.515Z,55.34
2017-09-04T07:25:57.517Z,56.05
2017-09-04T07:26:57.518Z,56.82
2017-09-04T07:27:57.521Z,57.62
2017-09-04T07:28:57.523Z,57.17
2017-09-04T07:29:57.525Z,56.04
2017-09-04T07:30:57.527Z,55.59
2017-09-04T07:31:57.526Z,54.62
2017-09-04T07:32:57.533Z,53.74
2017-09-04T07:33:57.534Z,52.12
2017-09-04T07:34:57.535Z,50.72
2017-09-04T07:35:57.538Z,49.22
2017-09-04T07:36:57.540Z,47.77
2017-09-04T07:37:57.542Z,46.70
2017-09-04T07:38:57.551Z,46.14
2017-09-04T07:39:57.547Z,46.56
2017-09-04T07:40:57.547Z,47.94
2017-09-04T07:41:57.549Z,49.51
2017-09-04T07:42:57.553Z,50.98
2017-09-04T07:43:57.559Z,51.46
2017-09-04T07:44:57.559Z,51.89
2017-09-04T07:45:57.564Z,52.93
2017-09-04T07:46:57.566Z,54.11
2017-09-04T07:47:57.568Z,53.97
2017-09-04T07:48:57.578Z,53.17
2017-09-04T07:49:57.580Z,53.15
2017-09-04T07:50:57.584Z,53.47
2017-09-04T07:51:57.585Z,52.39
2017-09-04T07:52:57.589Z,51.28
2017-09-04T07:53:57.593Z,50.45
2017-09-04T07:54:57.595Z,49.51
2017-09-04T07:55:57.599Z,47.86
2017-09-04T07:56:57.597Z,47.57
2017-09-04T07:57:57.601Z,47.26
2017-09-04T07:58:57.606Z,47.67
2017-09-04T07:59:57.608Z,48.03
2017-09-04T08:00:57.614Z,47.30
2017-09-04T08:01:57.617Z,45.77
2017-09-04T08:02:57.622Z,43.11
2017-09-04T08:03:57.626Z,41.57
2017-09-04T08:04:57.633Z,39.82
2017-09-04T08:05:57.640Z,39.22
2017-09-04T08:06:57.644Z,38.44
2017-09-04T08:07:57.654Z,37.65
2017-09-04T08:08:57.655Z,36.90
2017-09-04T08:09:57.665Z,35.90
2017-09-04T08:10:57.669Z,35.64
2017-09-04T08:11:57.671Z,34.80
2017-09-04T08:12:57.675Z,33.54
2017-09-04T08:13:57.682Z,32.92
2017-09-04T08:14:57.689Z,34.08
2017-09-04T08:15:57.695Z,34.11
2017-09-04T08:16:57.702Z,34.99
2017-09-04T08:17:57.711Z,35.96
2017-09-04T08:18:57.720Z,35.88
2017-09-04T08:19:57.726Z,35.07
2017-09-04T08:20:57.739Z,34.33
2017-09-04T08:21:57.748Z,32.68
2017-09-04T08:22:57.757Z,32.27
2017-09-04T08:23:57.767Z,32.47
2017-09-04T08:24:57.779Z,33.20
2017-09-04T08:25:57.784Z,32.95
2017-09-04T08:26:57.834Z,31.75
2017-09-04T08:27:57.803Z,31.84
2017-09-04T08:28:57.809Z,32.06
2017-09-04T08:29:57.820Z,32.17
2017-09-04T08:30:57.831Z,31.32
2017-09-04T08:31:57.839Z,30.55
2017-09-04T08:32:57.856Z,29.56
2017-09-04T08:33:57.866Z,29.91
2017-09-04T08:34:57.878Z,30.79
2017-09-04T08:35:57.889Z,31.36
2017-09-04T08:36:57.894Z,32.53
2017-09-04T08:37:57.909Z,32.07
2017-09-04T08:38:57.919Z,31.49
2017-09-04T08:39:57.930Z,30.96
2017-09-04T08:40:57.940Z,29.80
2017-09-04T08:41:57.953Z,29.24
2017-09-04T08:42:57.965Z,28.41
2017-09-04T08:43:57.976Z,28.99
2017-09-04T08:44:57.992Z,29.03
2017-09-04T08:45:58.005Z,29.74
2017-09-04T08:46:58.017Z,29.58
2017-09-04T08:47:58.029Z,29.84
2017-09-04T08:48:58.041Z,29.74
2017-09-04T08:49:58.054Z,29.28
2017-09-04T08:50:58.066Z,28.57
2017-09-04T08:51:58.077Z,26.91
2017-09-04T08:52:58.087Z,27.33
2017-09-04T08:53:58.103Z,25.29
2017-09-04T08:54:58.116Z,24.41
2017-09-04T08:55:58.124Z,23.94
2017-09-04T08:56:58.139Z,23.25
2017-09-04T08:57:58.151Z,23.67
2017-09-04T08:58:58.165Z,24.57
2017-09-04T08:59:58.178Z,24.41
2017-09-04T09:00:58.196Z,24.02
2017-09-04T09:01:58.209Z,24.04
2017-09-04T09:02:58.224Z,23.95
2017-09-04T09:03:58.235Z,23.26
2017-09-04T09:04:58.248Z,23.75
2017-09-04T09:05:58.261Z,23.72
2017-09-04T09:06:58.276Z,23.62
2017-09-04T09:07:58.287Z,23.90
2017-09-04T09:08:58.297Z,23.64
2017-09-04T09:09:58.313Z,22.96
2017-09-04T09:10:58.327Z,22.52
2017-09-04T09:11:58.338Z,23.78
2017-09-04T09:12:58.354Z,25.61
2017-09-04T09:13:58.368Z,25.59
2017-09-04T09:14:58.381Z,25.79
2017-09-04T09:15:58.398Z,26.51
2017-09-04T09:16:58.413Z,25.43
2017-09-04T09:17:58.427Z,24.10
2017-09-04T09:18:58.440Z,23.94
2017-09-04T09:19:58.454Z,25.27
2017-09-04T09:20:58.469Z,25.84
2017-09-04T09:21:58.481Z,26.78
2017-09-04T09:22:58.495Z,28.09
2017-09-04T09:23:58.508Z,27.98
2017-09-04T09:24:58.518Z,27.88
2017-09-04T09:25:58.531Z,28.40
2017-09-04T09:26:58.545Z,27.90
2017-09-04T09:27:58.558Z,27.87
2017-09-04T09:28:58.570Z,28.16
2017-09-04T09:29:58.582Z,27.95
2017-09-04T09:30:58.597Z,28.33
2017-09-04T09:31:58.608Z,28.57
2017-09-04T09:32:58.625Z,28.22
2017-09-04T09:33:58.664Z,27.45
2017-09-04T09:34:58.650Z,26.80
2017-09-04T09:35:58.663Z,27.04
2017-09-04T09:36:58.670Z,26.40
2017-09-04T09:37:58.685Z,26.71
2017-09-04T09:38:58.698Z,27.80
2017-09-04T09:39:58.708Z,28.06
2017-09-04T09:40:58.726Z,27.88
2017-09-04T09:41:58.738Z,27.59
2017-09-04T09:42:58.750Z,28.08
2017-09-04T09:43:58.762Z,27.80
2017-09-04T09:44:58.776Z,27.36
2017-09-04T09:45:58.788Z,26.90
2017-09-04T09:46:58.800Z,26.63
2017-09-04T09:47:58.813Z,25.52
2017-09-04T09:48:58.821Z,25.52
2017-09-04T09:49:58.833Z,24.43
2017-09-04T09:50:58.847Z,24.07
2017-09-04T09:51:58.858Z,24.25
2017-09-04T09:52:58.872Z,24.64
2017-09-04T09:53:58.884Z,25.29
2017-09-04T09:54:58.899Z,25.60
2017-09-04T09:55:58.910Z,27.00
2017-09-04T09:56:58.927Z,27.11
2017-09-04T09:57:58.940Z,26.93
2017-09-04T09:58:58.952Z,27.53
2017-09-04T09:59:58.965Z,27.28
2017-09-04T10:00:58.978Z,26.15
2017-09-04T10:01:58.989Z,25.21
2017-09-04T10:02:59.006Z,24.02
2017-09-04T10:03:59.016Z,23.15
2017-09-04T10:04:59.024Z,22.56
2017-09-04T10:05:59.037Z,22.38
2017-09-04T10:06:59.050Z,22.99
2017-09-04T10:07:59.063Z,23.54
2017-09-04T10:08:59.076Z,24.16
2017-09-04T10:09:59.090Z,24.18
2017-09-04T10:10:59.103Z,23.13
2017-09-04T10:11:59.114Z,22.75
2017-09-04T10:12:59.132Z,22.47
2017-09-04T10:13:59.147Z,21.37
2017-09-04T10:14:59.159Z,20.79
2017-09-04T10:15:59.173Z,21.04
2017-09-04T10:16:59.187Z,22.22
2017-09-04T10:17:59.200Z,22.42
2017-09-04T10:18:59.213Z,22.24
2017-09-04T10:19:59.226Z,22.27
2017-09-04T10:20:59.235Z,21.47
2017-09-04T10:21:59.250Z,21.01
2017-09-04T10:22:59.263Z,21.43
2017-09-04T10:23:59.276Z,22.70
2017-09-04T10:24:59.290Z,23.02
2017-09-04T10:25:59.304Z,22.46
2017-09-04T10:26:59.317Z,22.13
2017-09-04T10:27:59.331Z,22.46
2017-09-04T10:28:59.350Z,22.37
2017-09-04T10:29:59.362Z,21.45
2017-09-04T10:30:59.377Z,20.41
2017-09-04T10:31:59.390Z,19.90
2017-09-04T10:32:59.403Z,21.23
2017-09-04T10:33:59.420Z,21.33
2017-09-04T10:34:59.432Z,21.33
2017-09-04T10:35:59.445Z,22.14
2017-09-04T10:36:59.456Z,23.61
2017-09-04T10:37:59.469Z,23.81
2017-09-04T10:38:59.485Z,23.71
2017-09-04T10:39:59.497Z,23.55
2017-09-04T10:40:59.515Z,22.59
2017-09-04T10:41:59.530Z,23.00
2017-09-04T10:42:59.543Z,22.44
2017-09-04T10:43:59.557Z,22.12
2017-09-04T10:44:59.566Z,22.39
2017-09-04T10:45:59.580Z,23.58
2017-09-04T10:46:59.595Z,22.91
2017-09-04T10:47:59.608Z,22.56
2017-09-04T10:48:59.621Z,22.56
2017-09-04T10:49:59.635Z,23.94
2017-09-04T10:50:59.649Z,25.33
2017-09-04T10:51:59.662Z,26.09
2017-09-04T10:52:59.680Z,26.78
2017-09-04T10:53:59.693Z,27.39
2017-09-04T10:54:59.708Z,26.96
2017-09-04T10:55:59.720Z,25.29
2017-09-04T10:56:59.733Z,24.41
2017-09-04T10:57:59.746Z,24.43
2017-09-04T10:58:59.761Z,24.47
2017-09-04T10:59:59.772Z,23.19
2017-09-04T11:00:59.784Z,22.85
2017-09-04T11:01:59.797Z,23.06
2017-09-04T11:02:59.810Z,22.99
2017-09-04T11:03:59.822Z,22.98
2017-09-04T11:04:59.835Z,22.81
2017-09-04T11:05:59.849Z,22.39
2017-09-04T11:06:59.863Z,22.67
2017-09-04T11:07:59.895Z,22.91
2017-09-04T11:08:59.892Z,22.93
2017-09-04T11:09:59.906Z,21.47
2017-09-04T11:10:59.921Z,21.39
2017-09-04T11:11:59.938Z,21.01
2017-09-04T11:12:59.946Z,22.21
2017-09-04T11:13:59.964Z,23.88
2017-09-04T11:14:59.974Z,25.00
2017-09-04T11:15:59.986Z,25.22
2017-09-04T11:16:59.995Z,25.89
2017-09-04T11:18:00.010Z,26.99
2017-09-04T11:19:00.022Z,26.79
2017-09-04T11:20:00.034Z,26.43
2017-09-04T11:21:00.046Z,26.39
2017-09-04T11:22:00.058Z,27.94
2017-09-04T11:23:00.071Z,28.40
2017-09-04T11:24:00.084Z,28.81
2017-09-04T11:25:00.098Z,28.25
2017-09-04T11:26:00.111Z,27.94
2017-09-04T11:27:00.121Z,27.83
2017-09-04T11:28:00.133Z,28.13
2017-09-04T11:29:00.143Z,28.79
2017-09-04T11:30:00.155Z,28.97
2017-09-04T11:31:00.164Z,28.93
2017-09-04T11:32:00.173Z,29.69
2017-09-04T11:33:00.179Z,30.68
2017-09-04T11:34:00.188Z,31.48
2017-09-04T11:35:00.198Z,31.57
2017-09-04T11:36:00.205Z,32.06
2017-09-04T11:37:00.213Z,32.06
2017-09-04T11:38:00.221Z,32.47
2017-09-04T11:39:00.228Z,32.96
2017-09-04T11:40:00.235Z,32.78
2017-09-04T11:41:00.247Z,32.29
2017-09-04T11:42:00.253Z,31.90
2017-09-04T11:43:00.260Z,31.69
2017-09-04T11:44:00.270Z,32.08
2017-09-04T11:45:00.268Z,31.22
2017-09-04T11:46:00.274Z,31.79
2017-09-04T11:47:00.281Z,31.69
2017-09-04T11:48:00.285Z,32.55
2017-09-04T11:49:00.296Z,32.60
2017-09-04T11:50:00.301Z,33.18
2017-09-04T11:51:00.308Z,33.56
2017-09-04T11:52:00.312Z,34.42
2017-09-04T11:53:00.317Z,34.77
2017-09-04T11:54:00.321Z,35.66
2017-09-04T11:55:00.327Z,35.74
2017-09-04T11:56:00.332Z,35.71
2017-09-04T11:57:00.332Z,36.50
2017-09-04T11:58:00.339Z,37.37
2017-09-04T11:59:00.341Z,36.79
2017-09-04T12:00:00.344Z,37.15
2017-09-04T12:01:00.350Z,38.00
2017-09-04T12:02:00.355Z,38.50
2017-09-04T12:03:00.359Z,38.91
2017-09-04T12:04:00.361Z,39.11
2017-09-04T12:05:00.374Z,38.73
2017-09-04T12:06:00.374Z,38.54
2017-09-04T12:07:00.376Z,38.37
2017-09-04T12:08:00.380Z,38.46
2017-09-04T12:09:00.382Z,37.28
2017-09-04T12:10:00.386Z,36.99
2017-09-04T12:11:00.391Z,37.66
2017-09-04T12:12:00.397Z,38.04
2017-09-04T12:13:00.393Z,38.50
2017-09-04T12:14:00.395Z,38.02
2017-09-04T12:15:00.398Z,38.50
2017-09-04T12:16:00.401Z,38.32
2017-09-04T12:17:00.405Z,38.00
2017-09-04T12:18:00.407Z,38.56
2017-09-04T12:19:00.411Z,38.45
2017-09-04T12:20:00.413Z,38.45
2017-09-04T12:21:00.418Z,38.27
2017-09-04T12:22:00.422Z,38.17
2017-09-04T12:23:00.425Z,38.46
2017-09-04T12:24:00.431Z,38.78
2017-09-04T12:25:00.431Z,39.67
2017-09-04T12:26:00.432Z,38.40
2017-09-04T12:27:00.435Z,38.02
2017-09-04T12:28:00.440Z,37.15
2017-09-04T12:29:00.434Z,37.34
2017-09-04T12:30:00.438Z,37.43
2017-09-04T12:31:00.439Z,37.05
2017-09-04T12:32:00.441Z,36.95
2017-09-04T12:33:00.442Z,37.07
2017-09-04T12:34:00.444Z,37.45
2017-09-04T12:35:00.447Z,36.97
2017-09-04T12:36:00.448Z,38.25
2017-09-04T12:37:00.454Z,38.15
2017-09-04T12:38:00.457Z,37.88
2017-09-04T12:39:00.460Z,36.97
2017-09-04T12:40:00.460Z,36.58
2017-09-04T12:41:00.463Z,36.79
2017-09-04T12:42:00.469Z,37.18
2017-09-04T12:43:00.468Z,37.08
2017-09-04T12:44:00.469Z,37.28
2017-09-04T12:45:00.468Z,37.66
2017-09-04T12:46:00.469Z,38.07
2017-09-04T12:47:00.472Z,38.46
2017-09-04T12:48:00.473Z,38.19
2017-09-04T12:49:00.480Z,37.52
2017-09-04T12:50:00.483Z,36.85
2017-09-04T12:51:00.484Z,36.55
2017-09-04T12:52:00.486Z,36.87